Time;durP1;ratioP1;P1;durP2;ratioP2;P2;SDS_P1;SDS_P2;PMS_P1;PMS_P2;Temp;Humidity;BMP_temperature;BMP_pressure;BME280_temperature;BME280_humidity;BME280_pressure;Samples;Min_cycle;Max_cycle;Signal;HPM_P1;HPM_P2
2023/08/30 00:02:24;;;;;;;0.85;0.30;;;;;;;13.09;80.53;92156.63;2068307;69;20527;-77
2023/08/30 00:04:49;;;;;;;3.15;0.30;;;;;;;12.98;80.66;92156.19;2068270;69;20228;-78
2023/08/30 00:07:15;;;;;;;0.32;0.28;;;;;;;13.05;80.55;92160.00;2064978;69;20164;-78
2023/08/30 00:09:41;;;;;;;0.20;0.20;;;;;;;13.05;80.61;92162.09;2067956;69;20169;-77
2023/08/30 00:12:11;;;;;;;0.55;0.25;;;;;;;12.99;81.03;92162.56;2068091;69;20183;-78
2023/08/30 00:14:37;;;;;;;0.30;0.30;;;;;;;13.01;80.64;92154.16;2064555;69;20147;-77
2023/08/30 00:17:03;;;;;;;0.30;0.20;;;;;;;13.00;80.59;92158.34;2064878;69;20499;-77
2023/08/30 00:19:30;;;;;;;0.20;0.20;;;;;;;12.94;81.49;92158.09;2068226;69;20160;-78
2023/08/30 00:25:58;;;;;;;0.75;0.20;;;;;;;12.97;80.79;92165.31;2067411;69;20191;-78
2023/08/30 00:28:29;;;;;;;0.35;0.20;;;;;;;13.01;80.21;92161.91;2068134;69;20617;-76
2023/08/30 00:30:55;;;;;;;1.30;0.30;;;;;;;13.03;79.93;92157.09;2064824;69;20187;-77
2023/08/30 00:37:08;;;;;;;1.75;0.20;;;;;;;13.00;80.28;92166.84;2068065;69;20325;-77
2023/08/30 00:43:21;;;;;;;0.95;0.20;;;;;;;12.93;80.24;92165.84;2068097;69;20135;-77
2023/08/30 00:49:34;;;;;;;1.52;0.20;;;;;;;12.93;80.00;92153.81;2068082;69;20581;-77
2023/08/30 00:52:03;;;;;;;0.22;0.20;;;;;;;12.91;80.67;92153.72;2064611;69;20145;-77
2023/08/30 00:54:29;;;;;;;0.47;0.20;;;;;;;12.91;80.33;92153.72;2061685;69;20225;-78
2023/08/30 00:56:55;;;;;;;0.20;0.20;;;;;;;12.87;81.23;92162.03;2064912;69;20194;-78
2023/08/30 00:59:23;;;;;;;0.55;0.20;;;;;;;12.90;79.51;92150.19;2064746;69;20600;-77
2023/08/30 01:05:36;;;;;;;0.13;0.13;;;;;;;12.90;80.62;92155.81;2068065;69;20186;-77
2023/08/30 01:08:04;;;;;;;1.40;0.20;;;;;;;12.90;80.50;92155.09;2064318;69;20520;-76
2023/08/30 01:10:45;;;;;;;2.95;0.25;;;;;;;12.90;81.04;92153.00;2068151;69;20141;-77
2023/08/30 01:13:19;;;;;;;1.00;0.20;;;;;;;12.85;80.87;92147.81;2068018;69;20691;-78
2023/08/30 01:15:47;;;;;;;;;;;;;;;12.91;80.29;92142.44;2067883;69;20717;-77
2023/08/30 01:22:28;;;;;;;0.38;0.20;;;;;;;12.85;80.26;92140.06;2068011;69;20564;-76
2023/08/30 01:25:15;;;;;;;3.55;0.28;;;;;;;12.87;80.62;92136.59;2067506;69;20128;-75
2023/08/30 01:27:44;;;;;;;1.02;0.32;;;;;;;12.85;80.33;92134.44;2064655;69;20188;-79
2023/08/30 01:30:13;;;;;;;0.70;0.40;;;;;;;12.79;81.70;92130.63;2067397;69;20270;-76
2023/08/30 01:32:40;;;;;;;0.77;0.40;;;;;;;12.79;81.14;92130.63;2064252;69;20148;-76
2023/08/30 01:35:07;;;;;;;1.80;0.50;;;;;;;12.83;81.34;92128.69;2067412;69;20535;-75
2023/08/30 01:37:34;;;;;;;1.00;0.45;;;;;;;12.86;80.68;92124.56;2064593;69;20129;-75
2023/08/30 01:40:02;;;;;;;0.40;0.30;;;;;;;12.89;81.15;92122.56;2068105;69;20156;-76
2023/08/30 01:42:36;;;;;;;0.85;0.35;;;;;;;12.90;80.77;92126.84;2064783;69;20140;-76
2023/08/30 01:45:04;;;;;;;1.33;0.40;;;;;;;12.85;81.46;92125.94;2068028;69;20145;-76
2023/08/30 01:47:33;;;;;;;1.58;0.38;;;;;;;12.81;81.10;92117.28;2065082;69;20156;-76
2023/08/30 01:53:48;;;;;;;0.50;0.30;;;;;;;12.78;81.23;92112.19;2067985;69;20803;-77
2023/08/30 01:56:17;;;;;;;3.00;0.28;;;;;;;12.81;80.62;92116.56;2064893;69;20149;-76
2023/08/30 01:58:43;;;;;;;2.67;0.30;;;;;;;12.79;80.97;92114.41;2067767;69;20235;-76
2023/08/30 02:01:10;;;;;;;5.10;0.77;;;;;;;12.76;81.15;92106.47;2065038;69;20157;-77
2023/08/30 02:03:35;;;;;;;0.50;0.20;;;;;;;12.74;81.69;92107.13;2067463;69;20164;-77
2023/08/30 02:06:31;;;;;;;0.20;0.20;;;;;;;12.77;81.52;92105.09;2067856;69;20160;-77
2023/08/30 02:09:09;;;;;;;0.30;0.30;;;;;;;12.79;80.65;92108.03;2067535;69;20164;-77
2023/08/30 02:11:37;;;;;;;0.70;0.38;;;;;;;12.79;80.88;92103.09;2064290;69;20271;-77
2023/08/30 02:14:08;;;;;;;0.32;0.25;;;;;;;12.72;81.46;92104.19;2067415;69;20651;-76
2023/08/30 02:16:36;;;;;;;1.90;0.30;;;;;;;12.73;80.84;92100.72;2065125;69;20141;-77
2023/08/30 02:19:02;;;;;;;1.42;0.30;;;;;;;12.69;80.93;92105.47;2064813;69;20728;-77
2023/08/30 02:21:28;;;;;;;0.90;0.40;;;;;;;12.67;81.21;92103.28;2068027;69;20244;-77
2023/08/30 02:23:53;;;;;;;0.22;0.20;;;;;;;12.65;80.85;92102.50;2068301;69;20206;-77
2023/08/30 02:26:22;;;;;;;3.92;0.45;;;;;;;12.64;81.59;92106.66;2068325;69;20160;-77
2023/08/30 02:28:48;;;;;;;0.65;0.43;;;;;;;12.62;80.71;92101.66;2064793;69;20141;-77
2023/08/30 02:31:13;;;;;;;0.30;0.20;;;;;;;12.67;80.60;92111.03;2068110;69;20222;-77
2023/08/30 02:33:41;;;;;;;3.90;0.30;;;;;;;12.63;80.90;92111.59;2068405;69;20176;-78
2023/08/30 02:36:12;;;;;;;4.78;0.47;;;;;;;12.59;81.48;92105.03;2068686;69;20172;-78
2023/08/30 02:38:47;;;;;;;0.57;0.20;;;;;;;12.59;81.53;92110.69;2068395;69;20691;-79
2023/08/30 02:41:14;;;;;;;0.30;0.30;;;;;;;12.53;81.29;92113.97;2068273;69;20219;-78
2023/08/30 02:43:40;;;;;;;5.03;0.50;;;;;;;12.55;81.38;92110.50;2064356;69;20156;-77
2023/08/30 02:46:06;;;;;;;0.75;0.45;;;;;;;12.61;81.03;92110.78;2064864;69;20213;-78
2023/08/30 02:48:33;;;;;;;2.83;0.30;;;;;;;12.55;81.64;92116.88;2065112;69;20240;-77
2023/08/30 02:51:00;;;;;;;0.20;0.20;;;;;;;12.58;81.09;92124.06;2067948;69;20137;-77
2023/08/30 02:53:25;;;;;;;1.08;0.25;;;;;;;12.61;80.90;92119.25;2068524;69;20213;-77
2023/08/30 02:55:55;;;;;;;1.75;0.30;;;;;;;12.54;81.72;92120.34;2065425;69;20145;-78
2023/08/30 02:58:22;;;;;;;0.88;0.40;;;;;;;12.55;81.76;92118.97;2065132;69;20159;-77
2023/08/30 03:00:47;;;;;;;2.03;0.40;;;;;;;12.51;81.95;92119.53;2068307;69;20492;-77
2023/08/30 03:03:14;;;;;;;1.05;0.43;;;;;;;12.50;82.50;92115.22;2065072;69;20140;-77
2023/08/30 03:05:40;;;;;;;2.08;0.47;;;;;;;12.53;82.24;92113.25;2068280;69;20152;-77
2023/08/30 03:08:06;;;;;;;1.00;0.57;;;;;;;12.56;82.64;92107.06;2064576;69;20612;-78
2023/08/30 03:10:33;;;;;;;0.70;0.32;;;;;;;12.59;81.57;92107.84;2064752;69;20144;-77
2023/08/30 03:12:59;;;;;;;0.60;0.50;;;;;;;12.54;82.28;92101.31;2069293;69;20183;-77
2023/08/30 03:15:24;;;;;;;1.85;0.60;;;;;;;12.55;81.77;92099.94;2062607;69;20203;-77
2023/08/30 03:17:51;;;;;;;1.17;0.50;;;;;;;12.53;82.53;92097.03;2068040;69;20210;-78
2023/08/30 03:24:04;;;;;;;2.03;0.70;;;;;;;12.58;82.62;92106.41;2068433;69;20182;-77
2023/08/30 03:26:29;;;;;;;1.48;0.63;;;;;;;12.58;82.91;92106.41;2064969;69;20172;-79
2023/08/30 03:28:55;;;;;;;4.63;0.60;;;;;;;12.60;82.33;92098.75;2064639;69;20152;-78
2023/08/30 03:31:21;;;;;;;2.00;0.70;;;;;;;12.62;82.85;92106.59;2068464;69;20155;-78
2023/08/30 03:33:48;;;;;;;0.82;0.60;;;;;;;12.65;81.53;92108.13;2067885;69;20147;-79
2023/08/30 03:36:16;;;;;;;1.75;0.52;;;;;;;12.63;82.81;92108.03;2068364;69;20140;-78
2023/08/30 03:38:43;;;;;;;2.90;0.60;;;;;;;12.64;82.58;92112.31;2064590;69;20145;-78
2023/08/30 03:41:10;;;;;;;0.75;0.60;;;;;;;12.63;81.95;92105.94;2064795;69;20651;-78
2023/08/30 03:43:36;;;;;;;3.70;0.75;;;;;;;12.70;81.73;92115.41;2065069;69;20151;-78
2023/08/30 03:46:03;;;;;;;1.55;0.80;;;;;;;12.60;80.66;92112.88;2065137;69;20228;-78
2023/08/30 03:48:29;;;;;;;1.33;0.70;;;;;;;12.70;80.86;92107.66;2068359;69;20137;-78
2023/08/30 03:50:55;;;;;;;2.95;0.93;;;;;;;12.67;81.43;92120.22;2068274;69;20148;-77
2023/08/30 03:53:23;;;;;;;1.75;0.80;;;;;;;12.67;81.73;92119.50;2067933;69;20152;-78
2023/08/30 03:55:51;;;;;;;1.75;0.80;;;;;;;12.63;81.95;92119.34;2065077;69;20604;-79
2023/08/30 03:58:18;;;;;;;2.80;0.77;;;;;;;12.65;82.63;92117.34;2068378;69;20184;-78
2023/08/30 04:00:44;;;;;;;1.95;0.75;;;;;;;12.60;82.78;92115.72;2064919;69;20190;-78
2023/08/30 04:03:10;;;;;;;0.70;0.70;;;;;;;12.70;81.32;92118.97;2068312;69;20524;-78
2023/08/30 04:05:36;;;;;;;2.78;0.80;;;;;;;12.75;80.71;92119.16;2068394;69;20169;-79
2023/08/30 04:08:03;;;;;;;4.78;0.90;;;;;;;12.72;81.77;92119.03;2068245;69;20159;-78
2023/08/30 04:10:29;;;;;;;3.58;1.00;;;;;;;12.67;82.62;92113.88;2064596;69;20159;-79
2023/08/30 04:12:55;;;;;;;5.25;0.80;;;;;;;12.64;81.97;92118.69;2062159;69;20224;-78
2023/08/30 04:19:08;;;;;;;3.88;1.00;;;;;;;12.66;83.10;92115.97;2068482;69;20212;-79
2023/08/30 04:21:33;;;;;;;5.65;0.90;;;;;;;12.63;83.11;92113.69;2064684;69;20145;-79
2023/08/30 04:23:59;;;;;;;0.77;0.60;;;;;;;12.70;81.99;92121.78;2064593;69;20469;-79
2023/08/30 04:26:25;;;;;;;2.22;0.80;;;;;;;12.68;82.50;92109.66;2064630;69;20161;-80
2023/08/30 04:28:50;;;;;;;2.38;0.73;;;;;;;12.63;83.21;92116.50;2064791;69;20148;-79
2023/08/30 04:31:18;;;;;;;1.77;0.70;;;;;;;12.65;83.09;92114.50;2068050;69;20200;-79
2023/08/30 04:33:43;;;;;;;1.30;0.70;;;;;;;12.65;82.98;92120.16;2068376;69;20198;-80
2023/08/30 04:36:10;;;;;;;1.85;0.70;;;;;;;12.65;82.95;92113.78;2067643;69;20176;-78
2023/08/30 04:38:36;;;;;;;1.17;0.70;;;;;;;12.71;82.06;92114.75;2067422;69;20275;-79
2023/08/30 04:41:02;;;;;;;0.60;0.60;;;;;;;12.68;82.92;92118.13;2064688;69;20603;-79
2023/08/30 04:43:32;;;;;;;1.25;0.70;;;;;;;12.65;83.44;92110.97;2067895;69;20165;-78
2023/08/30 04:45:59;;;;;;;7.35;0.80;;;;;;;12.69;83.05;92109.03;2067824;69;20220;-79
2023/08/30 04:48:25;;;;;;;2.80;0.68;;;;;;;12.65;83.56;92105.31;2068361;69;20179;-80
2023/08/30 04:50:58;;;;;;;2.40;0.70;;;;;;;12.71;83.49;92114.03;2065057;69;20516;-79
2023/08/30 04:53:24;;;;;;;1.85;0.90;;;;;;;12.68;83.52;92121.69;2067854;69;20155;-80
2023/08/30 04:55:50;;;;;;;6.30;0.85;;;;;;;12.74;82.69;92112.78;2068374;69;20580;-79
2023/08/30 04:58:15;;;;;;;2.08;1.10;;;;;;;12.72;82.78;92109.84;2064940;69;20156;-79
2023/08/30 05:00:41;;;;;;;3.85;1.45;;;;;;;12.76;82.79;92117.78;2061712;69;20140;-79
2023/08/30 05:03:08;;;;;;;1.40;1.17;;;;;;;12.72;83.17;92119.03;2068311;69;20132;-79
2023/08/30 05:05:34;;;;;;;2.22;0.88;;;;;;;12.80;83.12;92121.50;2065004;69;20295;-79
2023/08/30 05:08:00;;;;;;;2.58;0.88;;;;;;;12.80;83.01;92117.94;2064898;69;20148;-79
2023/08/30 05:10:27;;;;;;;0.88;0.50;;;;;;;12.85;82.19;92128.78;2064629;69;20595;-78
2023/08/30 05:12:53;;;;;;;3.08;0.60;;;;;;;12.77;82.94;92124.88;2067586;69;20140;-78
2023/08/30 05:15:19;;;;;;;1.80;0.63;;;;;;;12.82;82.97;92129.31;2064828;69;20194;-79
2023/08/30 05:17:46;;;;;;;1.42;0.77;;;;;;;12.87;82.01;92128.13;2064910;69;20608;-78
2023/08/30 05:20:13;;;;;;;4.47;0.68;;;;;;;12.87;83.40;92126.03;2064705;69;20151;-79
2023/08/30 05:22:39;;;;;;;2.08;0.60;;;;;;;12.87;82.63;92128.13;2064700;69;20176;-79
2023/08/30 05:25:05;;;;;;;2.08;1.10;;;;;;;12.56;83.42;92129.63;2068387;69;20571;-79
2023/08/30 05:27:30;;;;;;;1.52;1.20;;;;;;;12.63;84.20;92122.16;2064878;69;20141;-79
2023/08/30 05:29:56;;;;;;;1.58;1.10;;;;;;;12.78;83.27;92129.88;2064685;69;20148;-79
2023/08/30 05:32:22;;;;;;;1.10;0.90;;;;;;;12.90;83.04;92121.19;2064464;69;20176;-79
2023/08/30 05:34:50;;;;;;;3.90;1.10;;;;;;;12.88;82.98;92121.13;2068237;69;20153;-77
2023/08/30 05:37:23;;;;;;;2.35;1.02;;;;;;;12.92;83.60;92124.09;2067587;69;20172;-79
2023/08/30 05:40:08;;;;;;;1.50;0.85;;;;;;;13.00;81.79;92121.63;2068048;69;20235;-79
2023/08/30 05:42:35;;;;;;;2.17;0.85;;;;;;;13.05;82.77;92122.53;2064409;69;20156;-77
2023/08/30 05:45:01;;;;;;;2.70;0.73;;;;;;;13.12;82.31;92124.25;2068131;69;20209;-78
2023/08/30 05:47:27;;;;;;;0.90;0.70;;;;;;;13.06;81.58;92124.00;2061860;69;20221;-79
2023/08/30 05:49:52;;;;;;;0.82;0.60;;;;;;;13.16;81.29;92130.81;2064403;69;20599;-78
2023/08/30 05:52:19;;;;;;;1.15;0.60;;;;;;;13.24;80.08;92136.09;2068500;69;20240;-78
2023/08/30 05:54:44;;;;;;;3.45;0.50;;;;;;;13.26;81.41;92129.81;2065322;69;20239;-78
2023/08/30 05:57:10;;;;;;;1.13;0.85;;;;;;;13.28;80.00;92121.41;2065055;69;20148;-78
2023/08/30 05:59:36;;;;;;;0.88;0.60;;;;;;;13.21;80.91;92138.09;2065086;69;20583;-79
2023/08/30 06:02:02;;;;;;;2.25;0.80;;;;;;;13.37;80.29;92140.88;2068692;69;20549;-79
2023/08/30 06:04:27;;;;;;;2.05;0.70;;;;;;;13.36;80.77;92139.44;2065288;69;20690;-79
2023/08/30 06:06:53;;;;;;;0.70;0.70;;;;;;;13.36;80.95;92138.69;2068395;69;20145;-79
2023/08/30 06:09:18;;;;;;;2.97;1.10;;;;;;;13.46;80.08;92147.59;2065051;69;20215;-80
2023/08/30 06:11:44;;;;;;;1.10;0.90;;;;;;;13.51;79.45;92148.50;2068376;69;20148;-79
2023/08/30 06:14:09;;;;;;;0.80;0.80;;;;;;;13.56;79.07;92138.78;2068711;69;20140;-79
2023/08/30 06:16:35;;;;;;;1.58;0.90;;;;;;;13.46;78.80;92139.09;2068662;69;20152;-79
2023/08/30 06:19:01;;;;;;;1.77;0.90;;;;;;;13.63;76.22;92132.03;2068691;69;20165;-78
2023/08/30 06:25:14;;;;;;;1.65;1.00;;;;;;;13.75;78.77;92146.66;2068635;69;20159;-78
2023/08/30 06:27:46;;;;;;;6.05;1.00;;;;;;;13.80;77.06;92150.38;2065184;69;20157;-79
2023/08/30 06:30:12;;;;;;;3.17;1.20;;;;;;;13.83;78.16;92144.13;2065294;69;20240;-78
2023/08/30 06:32:40;;;;;;;1.33;0.80;;;;;;;13.76;78.12;92148.13;2068120;69;20198;-78
2023/08/30 06:35:06;;;;;;;1.55;1.05;;;;;;;13.68;77.92;92153.44;2067796;69;20179;-78
2023/08/30 06:37:31;;;;;;;1.60;0.98;;;;;;;13.83;77.49;92146.25;2068275;69;20140;-79
2023/08/30 06:39:57;;;;;;;4.55;0.93;;;;;;;13.89;78.12;92147.22;2068612;69;20182;-77
2023/08/30 06:42:24;;;;;;;1.65;1.20;;;;;;;14.01;77.14;92138.47;2068568;69;20148;-78
2023/08/30 06:44:49;;;;;;;1.08;0.90;;;;;;;13.91;77.16;92141.63;2068606;69;20219;-79
2023/08/30 06:51:07;;;;;;;2.53;1.25;;;;;;;14.06;76.44;92145.75;2068627;69;20191;-78
2023/08/30 06:53:34;;;;;;;1.55;1.20;;;;;;;14.28;76.35;92145.16;2068415;69;20125;-77
2023/08/30 06:56:00;;;;;;;2.00;1.08;;;;;;;14.04;74.97;92136.47;2067688;69;20232;-78
2023/08/30 06:58:27;;;;;;;1.85;1.30;;;;;;;14.05;75.31;92152.06;2068403;69;20710;-78
2023/08/30 07:00:53;;;;;;;1.33;0.90;;;;;;;14.11;74.02;92143.81;2068640;69;20141;-78
2023/08/30 07:03:19;;;;;;;1.25;0.90;;;;;;;14.48;75.17;92141.03;2068579;69;20607;-77
2023/08/30 07:05:47;;;;;;;3.17;1.20;;;;;;;14.62;74.93;92148.59;2068467;69;20188;-78
2023/08/30 07:08:14;;;;;;;4.35;1.13;;;;;;;14.37;75.69;92141.25;2068308;69;20141;-78
2023/08/30 07:10:40;;;;;;;3.05;1.20;;;;;;;14.73;74.83;92139.09;2068514;69;20195;-79
2023/08/30 07:13:10;;;;;;;1.10;1.00;;;;;;;14.83;73.65;92139.44;2068521;69;20172;-79
2023/08/30 07:15:36;;;;;;;5.25;1.30;;;;;;;14.87;70.43;92144.53;2065005;69;20663;-78
2023/08/30 07:18:03;;;;;;;1.80;1.30;;;;;;;15.08;72.35;92146.00;2068653;69;20608;-79
2023/08/30 07:20:29;;;;;;;3.15;1.50;;;;;;;15.23;73.20;92153.63;2068434;69;20501;-79
2023/08/30 07:22:54;;;;;;;2.50;1.48;;;;;;;14.78;73.36;92142.81;2068311;69;20151;-80
2023/08/30 07:25:20;;;;;;;3.25;1.15;;;;;;;14.55;72.32;92144.81;2067984;69;20161;-79
2023/08/30 07:27:45;;;;;;;1.48;0.93;;;;;;;14.20;73.63;92149.16;2068260;69;20176;-81
2023/08/30 07:30:11;;;;;;;1.70;1.13;;;;;;;14.05;73.05;92149.97;2068338;69;20144;-78
2023/08/30 07:32:38;;;;;;;1.88;0.90;;;;;;;14.45;71.74;92153.63;2068383;69;20616;-78
2023/08/30 07:35:04;;;;;;;1.63;1.00;;;;;;;14.86;70.42;92155.16;2068577;69;20156;-78
2023/08/30 07:37:31;;;;;;;1.00;0.90;;;;;;;14.83;70.41;92152.91;2068302;69;20148;-79
2023/08/30 07:39:57;;;;;;;2.47;1.70;;;;;;;14.60;71.92;92152.06;2068439;69;20163;-79
2023/08/30 07:42:22;;;;;;;1.40;1.30;;;;;;;15.02;70.07;92152.16;2068220;69;20609;-79
2023/08/30 07:44:48;;;;;;;2.22;1.05;;;;;;;15.24;68.54;92150.13;2068455;69;20148;-79
2023/08/30 07:47:14;;;;;;;2.05;1.60;;;;;;;14.97;70.12;92147.75;2068357;69;20139;-80
2023/08/30 07:49:40;;;;;;;1.65;1.10;;;;;;;14.84;69.67;92157.91;2068425;69;20228;-80
2023/08/30 07:52:10;;;;;;;4.63;1.00;;;;;;;14.96;69.28;92151.97;2068473;69;20267;-80
2023/08/30 07:54:37;;;;;;;0.88;0.73;;;;;;;15.25;67.61;92159.34;2068283;69;20627;-78
2023/08/30 07:57:03;;;;;;;1.98;1.10;;;;;;;15.25;68.10;92151.56;2068272;69;20186;-79
2023/08/30 07:59:29;;;;;;;1.65;0.95;;;;;;;14.84;68.99;92149.41;2068373;69;20140;-79
2023/08/30 08:01:55;;;;;;;0.80;0.80;;;;;;;14.97;67.14;92145.63;2065024;69;20134;-81
2023/08/30 08:04:21;;;;;;;1.88;0.95;;;;;;;15.47;67.32;92148.06;2065156;69;20190;-83
2023/08/30 08:10:34;;;;;;;4.50;0.85;;;;;;;15.57;66.49;92142.72;2068326;69;20140;-79
2023/08/30 08:13:00;;;;;;;1.98;0.80;;;;;;;16.26;65.41;92144.22;2067791;69;20511;-79
2023/08/30 08:15:29;;;;;;;0.93;0.80;;;;;;;16.46;64.44;92142.03;2064883;69;20159;-79
2023/08/30 08:17:55;;;;;;;2.05;0.85;;;;;;;16.29;63.25;92142.91;2068219;69;20149;-79
2023/08/30 08:20:22;;;;;;;1.13;1.02;;;;;;;16.08;64.32;92143.66;2068066;69;20618;-79
2023/08/30 08:22:48;;;;;;;2.88;0.85;;;;;;;16.53;63.07;92142.94;2064744;69;20148;-80
2023/08/30 08:25:15;;;;;;;4.68;3.60;;;;;;;15.84;62.41;92123.75;2067963;69;20156;-80
2023/08/30 08:27:41;;;;;;;0.60;0.55;;;;;;;16.22;62.27;92127.09;2067787;69;20144;-80
2023/08/30 08:30:09;;;;;;;2.95;1.00;;;;;;;16.06;62.78;92127.31;2068172;69;20200;-79
2023/08/30 08:32:35;;;;;;;2.05;1.05;;;;;;;16.42;61.63;92129.81;2068395;69;20549;-80
2023/08/30 08:35:00;;;;;;;1.55;0.70;;;;;;;16.31;61.39;92122.38;2068128;69;20641;-80
2023/08/30 08:37:26;;;;;;;1.42;1.15;;;;;;;16.78;61.05;92133.03;2067969;69;20258;-80
2023/08/30 08:39:51;;;;;;;3.03;2.20;;;;;;;17.04;61.20;92133.03;2068082;69;20152;-81
2023/08/30 08:42:20;;;;;;;0.85;0.80;;;;;;;17.48;60.26;92135.66;2068323;69;20156;-80
2023/08/30 08:44:54;;;;;;;1.58;0.95;;;;;;;17.42;58.51;92129.81;2068245;69;20168;-79
2023/08/30 08:47:21;;;;;;;1.55;1.08;;;;;;;17.46;59.43;92124.97;2068177;69;20148;-80
2023/08/30 08:49:47;;;;;;;1.02;0.80;;;;;;;17.35;58.16;92131.75;2068184;69;20249;-80
2023/08/30 08:52:16;;;;;;;1.50;0.82;;;;;;;17.13;59.41;92123.34;2068118;69;20144;-79
2023/08/30 08:54:45;;;;;;;0.88;0.80;;;;;;;17.93;58.96;92119.75;2068108;69;20218;-79
2023/08/30 08:57:10;;;;;;;1.40;0.75;;;;;;;18.22;56.24;92119.00;2068325;69;20183;-80
2023/08/30 08:59:36;;;;;;;1.10;0.80;;;;;;;18.81;57.40;92121.75;2068313;69;20289;-79
2023/08/30 09:02:03;;;;;;;1.40;1.00;;;;;;;18.79;56.08;92111.75;2068246;69;20469;-79
2023/08/30 09:04:32;;;;;;;1.17;0.93;;;;;;;18.91;55.89;92110.56;2068175;69;20169;-79
2023/08/30 09:07:01;;;;;;;1.77;0.93;;;;;;;19.15;54.81;92113.16;2068083;69;20461;-80
2023/08/30 09:09:27;;;;;;;1.58;0.70;;;;;;;18.16;54.13;92110.31;2068118;69;20143;-80
2023/08/30 09:11:53;;;;;;;1.20;0.90;;;;;;;17.63;56.11;92113.97;2068216;69;20156;-80
2023/08/30 09:14:19;;;;;;;3.95;1.10;;;;;;;18.43;55.35;92119.50;2068208;69;20604;-80
2023/08/30 09:17:03;;;;;;;2.70;0.70;;;;;;;18.85;53.66;92114.00;2068036;69;20129;-79
2023/08/30 09:19:30;;;;;;;1.45;0.90;;;;;;;18.70;53.74;92112.25;2068289;69;20149;-80
2023/08/30 09:22:00;;;;;;;0.77;0.77;;;;;;;18.99;54.72;92119.28;2068139;69;20218;-80
2023/08/30 09:24:36;;;;;;;5.28;1.20;;;;;;;18.48;54.29;92116.03;2067843;69;20152;-80
2023/08/30 09:27:03;;;;;;;3.80;0.95;;;;;;;19.02;53.82;92117.91;2068261;69;20136;-80
2023/08/30 09:29:29;;;;;;;1.35;1.05;;;;;;;18.88;54.45;92101.25;2068160;69;20144;-80
2023/08/30 09:31:55;;;;;;;1.55;1.00;;;;;;;18.97;53.26;92102.84;2068177;69;20141;-81
2023/08/30 09:34:28;;;;;;;1.30;0.80;;;;;;;19.30;52.94;92109.19;2068258;69;20703;-81
2023/08/30 09:36:54;;;;;;;0.98;0.75;;;;;;;19.22;53.44;92103.31;2068023;69;20125;-80
2023/08/30 09:39:21;;;;;;;1.67;0.90;;;;;;;19.74;53.21;92102.88;2067807;69;20313;-79
2023/08/30 09:41:48;;;;;;;2.40;1.00;;;;;;;19.27;53.25;92097.00;2067845;69;20180;-80
2023/08/30 09:44:15;;;;;;;1.60;0.90;;;;;;;19.72;52.21;92097.13;2068032;69;20214;-81
2023/08/30 09:46:45;;;;;;;1.13;1.00;;;;;;;19.66;51.66;92099.88;2068205;69;20222;-81
2023/08/30 09:49:12;;;;;;;1.02;0.90;;;;;;;18.99;52.74;92099.31;2068037;69;20164;-80
2023/08/30 09:51:42;;;;;;;1.85;0.82;;;;;;;19.30;52.89;92087.09;2067989;69;20699;-80
2023/08/30 09:54:14;;;;;;;2.38;1.00;;;;;;;19.66;51.15;92085.63;2068050;69;20133;-80
2023/08/30 09:56:41;;;;;;;0.98;0.80;;;;;;;19.71;51.57;92087.13;2064682;69;20177;-80
2023/08/30 09:59:07;;;;;;;3.70;0.90;;;;;;;19.30;51.12;92081.38;2068087;69;20239;-80
2023/08/30 10:01:35;;;;;;;1.92;0.80;;;;;;;19.34;51.93;92074.31;2068215;69;20527;-80
2023/08/30 10:04:03;;;;;;;2.15;0.80;;;;;;;20.06;52.13;92088.41;2068302;69;20201;-81
2023/08/30 10:06:29;;;;;;;1.20;0.80;;;;;;;20.54;50.52;92085.59;2068069;69;20149;-80
2023/08/30 10:08:57;;;;;;;2.78;1.27;;;;;;;21.15;49.49;92076.34;2067992;69;20148;-81
2023/08/30 10:11:24;;;;;;;3.17;1.10;;;;;;;21.57;48.20;92076.81;2068135;69;20140;-81
2023/08/30 10:13:52;;;;;;;2.60;0.80;;;;;;;21.78;47.63;92080.63;2068028;69;20152;-81
2023/08/30 10:16:24;;;;;;;2.15;0.70;;;;;;;21.61;46.36;92073.28;2068011;69;20144;-80
2023/08/30 10:18:59;;;;;;;1.10;0.60;;;;;;;21.87;47.96;92072.09;2068143;69;20551;-80
2023/08/30 10:21:27;;;;;;;1.55;0.70;;;;;;;22.74;46.66;92069.19;2068318;69;20149;-80
2023/08/30 10:23:55;;;;;;;0.93;0.68;;;;;;;23.11;42.91;92070.09;2068057;69;20232;-80
2023/08/30 10:26:24;;;;;;;0.55;0.52;;;;;;;23.10;42.27;92065.81;2068190;69;20158;-80
2023/08/30 10:28:53;;;;;;;1.60;0.52;;;;;;;25.17;41.69;92066.66;2068107;69;20140;-81
2023/08/30 10:31:18;;;;;;;1.05;0.60;;;;;;;26.97;38.75;92066.88;2068116;69;20160;-81
2023/08/30 10:33:52;;;;;;;0.60;0.50;;;;;;;27.04;36.56;92076.22;2068255;69;20156;-81
2023/08/30 10:36:27;;;;;;;0.68;0.50;;;;;;;25.91;35.73;92075.69;2068332;69;20176;-81
2023/08/30 10:38:54;;;;;;;0.60;0.55;;;;;;;26.01;38.35;92075.59;2068568;69;20144;-81
2023/08/30 10:41:25;;;;;;;0.55;0.40;;;;;;;25.55;36.80;92075.13;2068687;69;20220;-81
2023/08/30 10:43:56;;;;;;;1.63;0.60;;;;;;;25.53;37.70;92080.91;2068658;69;20619;-81
2023/08/30 10:46:36;;;;;;;0.70;0.50;;;;;;;23.87;37.65;92071.06;2068285;69;20597;-81
2023/08/30 10:49:14;;;;;;;0.60;0.40;;;;;;;23.81;38.45;92068.16;2068690;69;20141;-81
2023/08/30 10:51:40;;;;;;;1.13;0.52;;;;;;;23.99;38.92;92053.81;2068495;69;20699;-80
2023/08/30 10:54:17;;;;;;;0.55;0.50;;;;;;;24.14;40.33;92068.91;2068353;69;20156;-79
2023/08/30 10:56:57;;;;;;;1.48;0.70;;;;;;;22.92;40.28;92062.84;2068523;69;20225;-80
2023/08/30 10:59:24;;;;;;;1.17;0.55;;;;;;;22.53;41.53;92065.47;2062102;69;20255;-81
2023/08/30 11:01:51;;;;;;;1.13;0.47;;;;;;;21.87;42.71;92060.66;2068396;69;20228;-80
2023/08/30 11:04:18;;;;;;;3.08;0.60;;;;;;;22.64;42.90;92066.25;2065023;69;20153;-80
2023/08/30 11:06:49;;;;;;;0.50;0.50;;;;;;;21.87;41.77;92060.66;2068668;69;20223;-80
2023/08/30 11:09:22;;;;;;;0.50;0.50;;;;;;;22.51;42.31;92059.72;2068385;69;20148;-80
2023/08/30 11:11:48;;;;;;;1.02;0.40;;;;;;;22.63;41.30;92059.06;2067936;69;20746;-80
2023/08/30 11:14:15;;;;;;;0.47;0.40;;;;;;;23.47;39.04;92063.06;2068460;69;20233;-79
2023/08/30 11:16:41;;;;;;;0.68;0.50;;;;;;;24.21;37.28;92063.91;2068314;69;20141;-80
2023/08/30 11:19:09;;;;;;;0.80;0.55;;;;;;;25.73;38.02;92065.66;2068467;69;20158;-80
2023/08/30 11:21:37;;;;;;;1.35;0.50;;;;;;;27.97;35.49;92062.09;2068362;69;20206;-81
2023/08/30 11:24:04;;;;;;;0.52;0.50;;;;;;;29.05;33.48;92060.41;2064852;69;20228;-81
2023/08/30 11:26:30;;;;;;;1.35;0.60;;;;;;;28.50;31.78;92070.72;2068444;69;20143;-81
2023/08/30 11:28:56;;;;;;;0.60;0.60;;;;;;;26.99;33.29;92060.38;2068218;69;20164;-81
2023/08/30 11:31:26;;;;;;;0.95;0.60;;;;;;;27.32;35.21;92061.47;2067769;69;20148;-80
2023/08/30 11:33:56;;;;;;;0.65;0.50;;;;;;;25.35;36.52;92052.91;2068433;69;20149;-81
2023/08/30 11:36:25;;;;;;;0.52;0.47;;;;;;;25.88;34.70;92062.72;2068525;69;20137;-81
2023/08/30 11:38:52;;;;;;;1.58;0.50;;;;;;;25.05;37.78;92045.06;2068267;69;20269;-80
2023/08/30 11:41:20;;;;;;;0.85;0.40;;;;;;;25.40;37.85;92050.72;2068309;69;20218;-80
2023/08/30 11:43:48;;;;;;;0.52;0.50;;;;;;;23.79;38.22;92053.81;2068302;69;20168;-79
2023/08/30 11:46:13;;;;;;;0.50;0.40;;;;;;;23.26;38.23;92048.63;2068169;69;20210;-81
2023/08/30 11:48:42;;;;;;;0.70;0.60;;;;;;;22.66;40.16;92040.44;2068149;69;20149;-81
2023/08/30 11:51:09;;;;;;;0.75;0.50;;;;;;;22.81;40.74;92036.94;2065077;69;20152;-81
2023/08/30 11:53:35;;;;;;;0.63;0.63;;;;;;;23.99;40.03;92033.69;2064947;69;20147;-80
2023/08/30 11:56:01;;;;;;;1.35;0.75;;;;;;;23.86;39.22;92038.00;2068353;69;20149;-81
2023/08/30 11:58:27;;;;;;;0.60;0.52;;;;;;;24.06;39.68;92046.66;2068290;69;20246;-82
2023/08/30 12:00:54;;;;;;;0.63;0.50;;;;;;;23.73;39.32;92048.03;2068188;69;20240;-82
2023/08/30 12:03:20;;;;;;;1.13;0.60;;;;;;;23.17;40.05;92032.09;2068323;69;20145;-82
2023/08/30 12:05:50;;;;;;;1.58;0.63;;;;;;;22.94;39.81;92040.59;2064636;69;20173;-81
2023/08/30 12:08:29;;;;;;;0.45;0.45;;;;;;;23.61;39.83;92034.34;2068167;69;20136;-82
2023/08/30 12:10:55;;;;;;;0.90;0.40;;;;;;;23.37;38.63;92034.28;2068220;69;20156;-81
2023/08/30 12:13:29;;;;;;;1.00;0.52;;;;;;;24.68;38.46;92027.19;2068258;69;20184;-82
2023/08/30 12:15:58;;;;;;;0.93;0.47;;;;;;;31.57;30.16;92045.16;2068238;69;20164;-82
2023/08/30 12:18:28;;;;;;;0.50;0.30;;;;;;;35.16;24.75;92055.34;2068451;69;20524;-82
2023/08/30 12:20:59;;;;;;;0.38;0.38;;;;;;;29.15;30.81;92037.03;2064920;69;20179;-81
2023/08/30 12:23:26;;;;;;;0.63;0.30;;;;;;;27.96;31.56;92031.75;2068142;69;20569;-81